createdAt,value
2023-01-27T00:02:44.150Z,4.38
2023-01-27T00:05:30.542Z,4.60
2023-01-27T00:08:17.742Z,4.00
2023-01-27T00:11:22.345Z,4.22
2023-01-27T00:14:08.605Z,3.85
2023-01-27T00:16:54.542Z,3.92
2023-01-27T00:19:44.767Z,4.05
2023-01-27T00:22:49.989Z,3.90
2023-01-27T00:28:25.648Z,3.88
2023-01-27T00:31:31.921Z,3.80
2023-01-27T00:34:17.836Z,3.97
2023-01-27T00:37:03.665Z,4.30
2023-01-27T00:39:52.274Z,4.05
2023-01-27T00:42:38.384Z,4.05
2023-01-27T00:45:43.166Z,4.22
2023-01-27T00:48:29.592Z,4.60
2023-01-27T00:51:17.505Z,4.13
2023-01-27T00:54:05.121Z,3.88
2023-01-27T00:56:51.738Z,3.70
2023-01-27T00:59:37.849Z,3.90
2023-01-27T01:02:24.085Z,3.42
2023-01-27T01:05:10.303Z,3.60
2023-01-27T01:07:56.411Z,3.78
2023-01-27T01:10:43.335Z,3.53
2023-01-27T01:13:29.379Z,3.75
2023-01-27T01:16:19.458Z,3.47
2023-01-27T01:19:05.954Z,3.38
2023-01-27T01:21:51.783Z,2.92
2023-01-27T01:24:37.892Z,2.97
2023-01-27T01:27:23.918Z,2.33
2023-01-27T01:30:11.148Z,4.07
2023-01-27T01:32:57.772Z,2.95
2023-01-27T01:35:43.892Z,3.22
2023-01-27T01:38:30.088Z,4.00
2023-01-27T01:41:19.278Z,3.13
2023-01-27T01:44:30.527Z,2.92
2023-01-27T01:47:19.666Z,3.45
2023-01-27T01:50:06.288Z,3.40
2023-01-27T01:52:53.779Z,3.38
2023-01-27T01:55:41.220Z,3.45
2023-01-27T01:58:28.192Z,4.43
2023-01-27T02:01:19.347Z,3.83
2023-01-27T02:04:11.594Z,3.45
2023-01-27T02:07:08.677Z,3.40
2023-01-27T02:09:56.515Z,3.38
2023-01-27T02:12:42.338Z,3.08
2023-01-27T02:15:30.165Z,3.50
2023-01-27T02:18:16.785Z,3.33
2023-01-27T02:21:04.729Z,3.85
2023-01-27T02:23:59.982Z,3.60
2023-01-27T02:26:46.889Z,4.05
2023-01-27T02:29:32.929Z,3.20
2023-01-27T02:32:24.507Z,3.13
2023-01-27T02:35:15.807Z,3.63
2023-01-27T02:38:04.285Z,4.03
2023-01-27T02:40:53.818Z,3.72
2023-01-27T02:43:40.181Z,3.90
2023-01-27T02:46:27.031Z,3.88
2023-01-27T02:49:13.079Z,3.35
2023-01-27T02:51:59.920Z,3.90
2023-01-27T02:54:46.886Z,4.47
2023-01-27T02:57:32.766Z,4.20
2023-01-27T03:00:51.266Z,3.75
2023-01-27T03:03:43.913Z,3.55
2023-01-27T03:06:30.195Z,3.95
2023-01-27T03:09:16.745Z,4.00
2023-01-27T03:12:20.649Z,4.40
2023-01-27T03:15:26.701Z,3.35
2023-01-27T03:18:16.252Z,3.85
2023-01-27T03:21:04.891Z,4.30
2023-01-27T03:23:51.398Z,3.90
2023-01-27T03:26:41.754Z,4.10
2023-01-27T03:29:55.678Z,3.78
2023-01-27T03:32:46.716Z,3.92
2023-01-27T03:36:21.277Z,4.18
2023-01-27T03:39:28.401Z,4.25
2023-01-27T03:42:33.038Z,3.75
2023-01-27T03:45:37.891Z,3.75
2023-01-27T03:48:24.407Z,4.35
2023-01-27T03:51:11.438Z,4.30
2023-01-27T03:53:57.278Z,4.65
2023-01-27T03:56:43.207Z,4.05
2023-01-27T03:59:29.277Z,4.90
2023-01-27T04:02:34.220Z,4.45
2023-01-27T04:05:38.508Z,4.50
2023-01-27T04:08:26.014Z,5.03
2023-01-27T04:11:31.828Z,4.00
2023-01-27T04:14:18.419Z,4.18
2023-01-27T04:17:12.553Z,4.35
2023-01-27T04:19:58.441Z,3.97
2023-01-27T04:22:44.591Z,4.13
2023-01-27T04:25:30.443Z,5.07
2023-01-27T04:28:22.303Z,4.15
2023-01-27T04:31:16.192Z,4.25
2023-01-27T04:34:02.275Z,4.55
2023-01-27T04:36:48.503Z,3.90
2023-01-27T04:39:36.255Z,4.00
2023-01-27T04:42:22.729Z,3.20
2023-01-27T04:45:10.418Z,3.97
2023-01-27T04:47:56.817Z,4.25
2023-01-27T04:50:42.855Z,3.88
2023-01-27T04:53:29.146Z,4.53
2023-01-27T04:56:27.827Z,4.38
2023-01-27T04:59:17.666Z,4.22
2023-01-27T05:02:04.796Z,3.90
2023-01-27T05:04:50.965Z,4.65
2023-01-27T05:07:36.982Z,4.50
2023-01-27T05:10:23.130Z,3.92
2023-01-27T05:13:09.293Z,4.55
2023-01-27T05:16:15.380Z,4.95
2023-01-27T05:19:02.211Z,4.38
2023-01-27T05:21:48.703Z,4.30
2023-01-27T05:24:34.681Z,4.32
2023-01-27T05:27:21.237Z,4.03
2023-01-27T05:30:08.163Z,3.95
2023-01-27T05:32:54.050Z,4.65
2023-01-27T05:35:40.115Z,4.47
2023-01-27T05:38:25.976Z,4.75
2023-01-27T05:41:13.298Z,4.43
2023-01-27T05:43:59.896Z,4.63
2023-01-27T05:46:46.068Z,4.75
2023-01-27T05:49:32.486Z,4.75
2023-01-27T05:52:18.740Z,4.93
2023-01-27T05:55:04.980Z,5.22
2023-01-27T05:57:50.893Z,4.22
2023-01-27T06:00:36.859Z,4.65
2023-01-27T06:03:23.649Z,4.60
2023-01-27T06:06:10.923Z,5.32
2023-01-27T06:08:58.001Z,5.28
2023-01-27T06:11:43.761Z,4.70
2023-01-27T06:14:29.640Z,5.15
2023-01-27T06:17:15.642Z,5.65
2023-01-27T06:20:01.880Z,5.43
2023-01-27T06:22:50.513Z,5.45
2023-01-27T06:25:38.654Z,5.88
2023-01-27T06:28:29.189Z,4.90
2023-01-27T06:31:18.151Z,5.28
2023-01-27T06:34:04.199Z,5.15
2023-01-27T06:36:52.574Z,4.72
2023-01-27T06:39:38.903Z,7.97
2023-01-27T06:42:25.070Z,5.40
2023-01-27T06:45:12.651Z,5.50
2023-01-27T06:48:00.658Z,5.30
2023-01-27T06:50:46.852Z,6.47
2023-01-27T06:53:32.918Z,5.30
2023-01-27T06:56:19.496Z,4.63
2023-01-27T06:59:05.426Z,5.57
2023-01-27T07:01:51.732Z,6.00
2023-01-27T07:04:37.995Z,6.22
2023-01-27T07:07:24.058Z,4.53
2023-01-27T07:10:10.806Z,9.07
2023-01-27T07:13:11.221Z,5.88
2023-01-27T07:15:57.715Z,5.05
2023-01-27T07:18:43.874Z,6.65
2023-01-27T07:21:29.804Z,5.63
2023-01-27T07:24:15.917Z,5.80
2023-01-27T07:27:01.921Z,5.53
2023-01-27T07:29:47.882Z,6.43
2023-01-27T07:32:33.950Z,5.30
2023-01-27T07:35:19.838Z,5.65
2023-01-27T07:38:06.999Z,4.88
2023-01-27T07:40:53.186Z,5.80
2023-01-27T07:43:38.992Z,5.57
2023-01-27T07:46:27.369Z,5.30
2023-01-27T07:49:13.345Z,5.63
2023-01-27T07:51:59.380Z,5.13
2023-01-27T07:54:45.446Z,5.80
2023-01-27T07:57:32.532Z,5.40
2023-01-27T08:00:21.255Z,4.68
2023-01-27T08:03:07.249Z,5.07
2023-01-27T08:05:53.202Z,5.57
2023-01-27T08:08:39.247Z,5.70
2023-01-27T08:11:25.137Z,5.38
2023-01-27T08:14:11.166Z,5.72
2023-01-27T08:16:57.210Z,5.68
2023-01-27T08:19:43.177Z,4.72
2023-01-27T08:22:29.778Z,5.10
2023-01-27T08:25:15.982Z,5.03
2023-01-27T08:28:02.026Z,5.53
2023-01-27T08:30:48.643Z,5.43
2023-01-27T08:33:35.331Z,5.38
2023-01-27T08:36:23.180Z,6.00
2023-01-27T08:39:10.506Z,5.70
2023-01-27T08:44:43.260Z,4.95
2023-01-27T08:47:29.147Z,4.82
2023-01-27T08:50:15.492Z,5.43
2023-01-27T08:53:01.700Z,5.55
2023-01-27T08:55:47.809Z,6.00
2023-01-27T08:58:34.796Z,5.10
2023-01-27T09:04:07.035Z,4.78
2023-01-27T09:06:54.194Z,5.43
2023-01-27T09:09:40.128Z,4.40
2023-01-27T09:12:26.011Z,5.57
2023-01-27T09:15:13.488Z,4.82
2023-01-27T09:17:59.737Z,4.78
2023-01-27T09:20:45.989Z,4.68
2023-01-27T09:23:35.701Z,4.85
2023-01-27T09:26:22.275Z,4.68
2023-01-27T09:29:08.537Z,5.53
2023-01-27T09:31:54.362Z,4.88
2023-01-27T09:34:40.225Z,4.47
2023-01-27T09:37:27.891Z,4.57
2023-01-27T09:40:25.977Z,4.35
2023-01-27T09:43:32.365Z,3.90
2023-01-27T09:46:23.707Z,4.78
2023-01-27T09:49:30.183Z,4.63
2023-01-27T09:52:46.440Z,4.97
2023-01-27T09:55:50.669Z,4.80
2023-01-27T09:58:39.630Z,4.45
2023-01-27T10:01:34.768Z,5.50
2023-01-27T10:04:45.315Z,4.35
2023-01-27T10:07:57.751Z,4.72
2023-01-27T10:10:52.375Z,6.88
2023-01-27T10:13:53.878Z,8.82
2023-01-27T10:16:49.117Z,5.97
2023-01-27T10:19:44.315Z,11.68
2023-01-27T10:22:46.124Z,5.38
2023-01-27T10:25:40.978Z,6.15
2023-01-27T10:28:30.844Z,5.05
2023-01-27T10:31:35.610Z,4.28
2023-01-27T10:37:19.706Z,4.53
2023-01-27T10:40:35.989Z,4.40
2023-01-27T10:43:44.042Z,4.15
2023-01-27T10:46:43.557Z,4.28
2023-01-27T10:49:35.759Z,4.13
2023-01-27T10:52:30.505Z,4.25
2023-01-27T10:55:33.251Z,4.75
2023-01-27T10:58:32.560Z,5.38
2023-01-27T11:01:25.784Z,5.05
2023-01-27T11:04:39.128Z,5.47
2023-01-27T11:07:26.085Z,4.78
2023-01-27T11:10:20.467Z,4.43
2023-01-27T11:13:11.030Z,5.05
2023-01-27T11:15:57.914Z,5.10
2023-01-27T11:18:46.473Z,5.60
2023-01-27T11:21:33.851Z,5.07
2023-01-27T11:24:30.709Z,5.18
2023-01-27T11:27:25.429Z,5.70
2023-01-27T11:30:32.324Z,4.80
2023-01-27T11:33:27.365Z,5.53
2023-01-27T11:36:14.008Z,4.60
2023-01-27T11:39:01.653Z,5.40
2023-01-27T11:41:58.653Z,5.47
2023-01-27T11:44:46.146Z,4.68
2023-01-27T11:47:37.225Z,4.10
2023-01-27T11:50:24.841Z,4.55
2023-01-27T11:53:17.307Z,4.80
2023-01-27T11:56:08.442Z,5.15
2023-01-27T11:59:18.871Z,5.00
2023-01-27T12:02:07.994Z,4.85
2023-01-27T12:05:07.261Z,5.10
2023-01-27T12:08:01.425Z,4.22
2023-01-27T12:10:47.551Z,4.90
2023-01-27T12:13:33.658Z,4.85
2023-01-27T12:16:20.222Z,4.95
2023-01-27T12:19:22.706Z,5.07
2023-01-27T12:22:15.073Z,4.97
2023-01-27T12:25:05.896Z,4.43
2023-01-27T12:27:59.049Z,4.68
2023-01-27T12:30:47.686Z,5.38
2023-01-27T12:33:36.733Z,4.85
2023-01-27T12:36:24.514Z,4.82
2023-01-27T12:39:35.914Z,5.32
2023-01-27T12:42:51.775Z,5.55
2023-01-27T12:45:38.596Z,5.07
2023-01-27T12:48:31.679Z,4.93
2023-01-27T12:54:29.315Z,6.93
2023-01-27T12:57:19.133Z,5.72
2023-01-27T13:00:06.289Z,4.60
2023-01-27T13:02:57.301Z,4.88
2023-01-27T13:05:45.752Z,5.18
2023-01-27T13:08:34.094Z,5.53
2023-01-27T13:11:32.603Z,5.35
2023-01-27T13:14:19.314Z,4.72
2023-01-27T13:17:07.297Z,4.95
2023-01-27T13:19:57.100Z,5.00
2023-01-27T13:22:47.686Z,4.30
2023-01-27T13:25:58.814Z,4.50
2023-01-27T13:28:57.419Z,4.80
2023-01-27T13:32:06.986Z,5.70
2023-01-27T13:35:08.200Z,4.72
2023-01-27T13:38:18.552Z,4.80
2023-01-27T13:41:15.585Z,5.75
2023-01-27T13:44:24.098Z,5.18
2023-01-27T13:47:20.565Z,4.60
2023-01-27T13:50:31.272Z,5.70
2023-01-27T13:53:19.647Z,5.10
2023-01-27T13:56:42.152Z,5.60
2023-01-27T13:59:41.007Z,4.90
2023-01-27T14:03:15.167Z,4.97
2023-01-27T14:06:23.290Z,5.30
2023-01-27T14:09:21.603Z,5.65
2023-01-27T14:12:22.481Z,5.13
2023-01-27T14:15:41.724Z,5.05
2023-01-27T14:18:48.592Z,5.43
2023-01-27T14:21:49.639Z,4.82
2023-01-27T14:24:53.915Z,4.68
2023-01-27T14:27:52.247Z,4.60
2023-01-27T14:30:49.187Z,4.65
2023-01-27T14:34:03.838Z,5.68
2023-01-27T14:37:08.594Z,5.43
2023-01-27T14:40:16.341Z,5.55
2023-01-27T14:43:36.893Z,5.25
2023-01-27T14:46:50.741Z,5.97
2023-01-27T14:49:46.969Z,5.00
2023-01-27T14:52:44.774Z,4.93
2023-01-27T14:55:37.017Z,5.93
2023-01-27T14:58:55.438Z,4.63
2023-01-27T15:02:19.953Z,5.97
2023-01-27T15:05:19.149Z,5.45
2023-01-27T15:08:29.576Z,5.35
2023-01-27T15:11:21.738Z,5.00
2023-01-27T15:14:41.284Z,5.28
2023-01-27T15:17:28.778Z,4.93
2023-01-27T15:20:35.964Z,5.00
2023-01-27T15:23:49.465Z,4.63
2023-01-27T15:26:37.542Z,4.80
2023-01-27T15:29:30.649Z,5.00
2023-01-27T15:35:33.763Z,4.68
2023-01-27T15:38:29.279Z,5.10
2023-01-27T15:41:15.977Z,5.72
2023-01-27T15:44:21.691Z,5.18
2023-01-27T15:47:16.569Z,5.15
2023-01-27T15:50:23.450Z,5.25
2023-01-27T15:53:23.692Z,4.68
2023-01-27T15:56:10.497Z,6.43
2023-01-27T15:59:03.384Z,5.47
2023-01-27T16:01:59.137Z,5.38
2023-01-27T16:05:03.909Z,5.60
2023-01-27T16:07:54.606Z,5.82
2023-01-27T16:10:41.914Z,5.45
2023-01-27T16:13:29.902Z,5.25
2023-01-27T16:16:19.228Z,5.43
2023-01-27T16:19:11.768Z,6.22
2023-01-27T16:22:02.435Z,5.65
2023-01-27T16:24:56.862Z,5.70
2023-01-27T16:28:03.893Z,5.63
2023-01-27T16:31:15.327Z,5.13
2023-01-27T16:34:06.469Z,5.00
2023-01-27T16:37:14.550Z,5.90
2023-01-27T16:40:23.052Z,5.38
2023-01-27T16:43:17.664Z,5.75
2023-01-27T16:46:04.747Z,5.28
2023-01-27T16:48:52.497Z,5.00
2023-01-27T16:51:39.326Z,4.47
2023-01-27T16:54:35.864Z,5.10
2023-01-27T16:57:35.499Z,6.03
2023-01-27T17:00:25.454Z,5.63
2023-01-27T17:03:18.718Z,5.47
2023-01-27T17:06:14.708Z,5.25
2023-01-27T17:09:02.428Z,5.50
2023-01-27T17:11:49.095Z,5.13
2023-01-27T17:14:41.965Z,5.38
2023-01-27T17:17:32.347Z,5.55
2023-01-27T17:20:27.315Z,6.15
2023-01-27T17:23:38.766Z,4.82
2023-01-27T17:26:25.553Z,5.55
2023-01-27T17:29:21.186Z,5.10
2023-01-27T17:32:38.250Z,5.78
2023-01-27T17:35:32.832Z,5.57
2023-01-27T17:38:24.796Z,4.95
2023-01-27T17:41:46.496Z,5.38
2023-01-27T17:44:33.285Z,5.05
2023-01-27T17:47:22.010Z,4.65
2023-01-27T17:50:08.497Z,6.03
2023-01-27T17:52:57.080Z,4.78
2023-01-27T17:55:42.965Z,5.05
2023-01-27T17:58:28.967Z,5.82
2023-01-27T18:01:15.916Z,5.07
2023-01-27T18:06:51.171Z,4.43
2023-01-27T18:09:51.101Z,5.00
2023-01-27T18:12:37.998Z,5.35
2023-01-27T18:15:48.736Z,5.10
2023-01-27T18:18:36.248Z,5.60
2023-01-27T18:21:27.107Z,5.07
2023-01-27T18:24:22.538Z,4.78
2023-01-27T18:27:24.693Z,4.82
2023-01-27T18:30:19.038Z,5.20
2023-01-27T18:33:06.712Z,4.43
2023-01-27T18:36:00.594Z,4.88
2023-01-27T18:38:49.914Z,4.57
2023-01-27T18:41:46.921Z,5.35
2023-01-27T18:44:35.878Z,5.03
2023-01-27T18:47:26.774Z,5.38
2023-01-27T18:50:20.065Z,5.05
2023-01-27T18:53:16.159Z,4.85
2023-01-27T18:56:04.398Z,5.32
2023-01-27T18:58:50.558Z,5.60
2023-01-27T19:01:36.815Z,5.72
2023-01-27T19:04:25.446Z,5.93
2023-01-27T19:07:16.845Z,5.82
2023-01-27T19:10:06.091Z,5.57
2023-01-27T19:12:53.226Z,6.45
2023-01-27T19:15:51.253Z,6.40
2023-01-27T19:18:40.057Z,6.43
2023-01-27T19:21:26.480Z,5.80
2023-01-27T19:24:12.773Z,6.63
2023-01-27T19:26:58.755Z,5.63
2023-01-27T19:29:45.047Z,6.10
2023-01-27T19:32:31.016Z,6.32
2023-01-27T19:35:16.963Z,6.13
2023-01-27T19:38:04.735Z,5.65
2023-01-27T19:40:51.067Z,5.43
2023-01-27T19:43:37.127Z,6.47
2023-01-27T19:46:23.540Z,5.93
2023-01-27T19:49:17.504Z,5.00
2023-01-27T19:52:03.906Z,5.80
2023-01-27T19:54:49.848Z,5.47
2023-01-27T19:57:36.258Z,4.55
2023-01-27T20:00:31.066Z,5.45
2023-01-27T20:03:17.498Z,5.95
2023-01-27T20:06:03.763Z,5.78
2023-01-27T20:08:59.652Z,5.82
2023-01-27T20:11:46.033Z,5.60
2023-01-27T20:14:32.059Z,5.30
2023-01-27T20:17:18.004Z,6.22
2023-01-27T20:20:04.258Z,5.15
2023-01-27T20:22:50.918Z,6.10
2023-01-27T20:25:37.408Z,5.38
2023-01-27T20:28:23.446Z,5.90
2023-01-27T20:31:18.324Z,5.45
2023-01-27T20:34:04.346Z,5.85
2023-01-27T20:36:50.381Z,5.90
2023-01-27T20:39:36.269Z,5.38
2023-01-27T20:42:22.481Z,5.53
2023-01-27T20:45:09.256Z,4.57
2023-01-27T20:47:56.108Z,5.43
2023-01-27T20:50:42.274Z,5.43
2023-01-27T20:53:32.844Z,5.20
2023-01-27T20:56:21.523Z,5.88
2023-01-27T20:59:07.636Z,4.90
2023-01-27T21:01:53.525Z,5.55
2023-01-27T21:04:40.179Z,5.75
2023-01-27T21:07:26.407Z,4.68
2023-01-27T21:10:12.273Z,5.07
2023-01-27T21:12:58.239Z,5.05
2023-01-27T21:15:48.996Z,5.47
2023-01-27T21:18:38.656Z,6.50
2023-01-27T21:21:27.460Z,5.40
2023-01-27T21:24:13.873Z,5.35
2023-01-27T21:27:00.102Z,5.18
2023-01-27T21:29:45.896Z,5.30
2023-01-27T21:32:31.959Z,5.57
2023-01-27T21:35:17.906Z,6.00
2023-01-27T21:38:04.060Z,5.30
2023-01-27T21:40:52.315Z,5.35
2023-01-27T21:43:56.891Z,6.35
2023-01-27T21:46:42.950Z,5.70
2023-01-27T21:49:29.058Z,5.07
2023-01-27T21:52:14.978Z,5.07
2023-01-27T21:55:02.694Z,4.97
2023-01-27T21:57:53.225Z,5.28
2023-01-27T22:00:39.470Z,5.22
2023-01-27T22:03:25.342Z,4.88
2023-01-27T22:06:11.394Z,5.20
2023-01-27T22:08:57.301Z,4.70
2023-01-27T22:11:43.285Z,5.25
2023-01-27T22:14:29.801Z,5.35
2023-01-27T22:17:16.518Z,4.35
2023-01-27T22:20:04.318Z,4.57
2023-01-27T22:22:51.808Z,4.70
2023-01-27T22:25:38.000Z,5.03
2023-01-27T22:28:25.438Z,4.72
2023-01-27T22:31:11.508Z,5.50
2023-01-27T22:33:57.636Z,5.30
2023-01-27T22:36:43.538Z,5.00
2023-01-27T22:39:29.714Z,5.25
2023-01-27T22:42:15.674Z,5.50
2023-01-27T22:45:02.379Z,5.70
2023-01-27T22:47:49.766Z,5.22
2023-01-27T22:50:36.831Z,5.07
2023-01-27T22:53:23.244Z,4.60
2023-01-27T22:56:09.671Z,5.53
2023-01-27T22:58:55.710Z,5.85
2023-01-27T23:01:41.656Z,5.22
2023-01-27T23:04:27.684Z,5.70
2023-01-27T23:07:13.526Z,5.53
2023-01-27T23:09:59.603Z,4.72
2023-01-27T23:12:45.545Z,5.63
2023-01-27T23:15:31.567Z,5.57
2023-01-27T23:18:18.069Z,5.32
2023-01-27T23:21:08.282Z,5.45
2023-01-27T23:23:54.296Z,5.60
2023-01-27T23:26:40.330Z,5.80
2023-01-27T23:29:28.387Z,5.85
2023-01-27T23:32:15.243Z,5.30
2023-01-27T23:35:01.230Z,5.70
2023-01-27T23:37:47.262Z,5.93
2023-01-27T23:40:34.515Z,5.47
2023-01-27T23:43:22.384Z,5.47
2023-01-27T23:46:08.513Z,5.38
2023-01-27T23:48:55.371Z,5.57
2023-01-27T23:51:41.485Z,5.65
2023-01-27T23:54:27.591Z,5.93
2023-01-27T23:57:13.724Z,6.18
2023-01-27T23:59:59.763Z,6.13
